Fram — LADA7 — position and weather

sailwx.info

Track history (hours):
 
Tides and Currents Weather Stations Pressure Air Temp Water Temp Dewpoint Dewpoint Depression Visibility Wind Speed Wind Dir Waves Ship Positions

Fram

Last reported at 2017-Mar-18 19:08 UTC. Time now 2017-Mar-24 10:18 UTC.
Position S 24°09' W 046°04'.

Length 114 m; draft 5.1 m.

Type: Ship. MMSI: 258932000.

Date/timePositionNaut miles runAvg speedWind from/ knotsBaromVisibWave heightAir tempDewpointWater temp
2017-Mar-18 19:08S 24°09' W 046°04'814.1
2017-Mar-18 18:33S 24°06' W 046°13'8 8.1
2017-Mar-18 17:33S 23°60' W 046°18'2 0.3
2017-Mar-18 10:21S 23°57' W 046°19'3 4.1
2017-Mar-18 09:33S 24°00' W 046°20'9 9.4
2017-Mar-18 08:33S 24°08' W 046°25'1312.7
2017-Mar-18 07:30S 24°17' W 046°36'1213.0
2017-Mar-18 06:33S 24°27' W 046°44'1413.2
2017-Mar-18 05:32S 24°38' W 046°52'166 5.5
2017-Mar-16 23:08S 26°58' W 048°32'913.2
2017-Mar-16 22:28S 27°04' W 048°25'1813.5
2017-Mar-16 21:10S 27°19' W 048°15'914.3
2017-Mar-16 20:33S 27°28' W 048°15'1414.3
2017-Mar-16 19:33S 27°42' W 048°16'1414.0
2017-Mar-16 18:33S 27°56' W 048°19'  
Track history (hours):
 
Tides and Currents Weather Stations Pressure Air Temp Water Temp Dewpoint Dewpoint Depression Visibility Wind Speed Wind Dir Waves Ship Positions

Fram

Last reported at 2017-Mar-18 19:08 UTC. Time now 2017-Mar-24 10:18 UTC.
Position S 24°09' W 046°04'.

Length 114 m; draft 5.1 m.

Type: Ship. MMSI: 258932000.

Date/timePositionNaut miles runAvg speedWind from/ knotsBaromVisibWave heightAir tempDewpointWater temp
2017-Mar-18 19:08S 24°09' W 046°04'814.1
2017-Mar-18 18:33S 24°06' W 046°13'8 8.1
2017-Mar-18 17:33S 23°60' W 046°18'2 0.3
2017-Mar-18 10:21S 23°57' W 046°19'3 4.1
2017-Mar-18 09:33S 24°00' W 046°20'9 9.4
2017-Mar-18 08:33S 24°08' W 046°25'1312.7
2017-Mar-18 07:30S 24°17' W 046°36'1213.0
2017-Mar-18 06:33S 24°27' W 046°44'1413.2
2017-Mar-18 05:32S 24°38' W 046°52'166 5.5
2017-Mar-16 23:08S 26°58' W 048°32'913.2
2017-Mar-16 22:28S 27°04' W 048°25'1813.5
2017-Mar-16 21:10S 27°19' W 048°15'914.3
2017-Mar-16 20:33S 27°28' W 048°15'1414.3
2017-Mar-16 19:33S 27°42' W 048°16'1414.0
2017-Mar-16 18:33S 27°56' W 048°19'  

Dump ship's entire track history